AVA226 SYCJ-SKBO
Flight info
| Callsign | AVA226 |
|---|---|
| Flight time | N/A |
| Altitude | 36000 |
| Route | DCT UGVIR UP549 ANBAG DCT 064356N0640158W 062101N0660156W DCT PTC DCT 06N070W 06N072W DCT DOPLO DOPLO5E |
| Aircraft | A320/M-SDE3FGHIRWY/LB1 |
Departure
| Time | 2026-05-06 20:36 |
|---|---|
| Airport | Cheddi Jagan International Airport (SYCJ) |
Arrival
| Time | N/A |
|---|---|
| Airport | El Dorado International Airport (SKBO) |
| Time | Latitude | Longitude | Altitude | Speed | Heading |
|---|---|---|---|---|---|
| 2026-05-06 20:07 | 6.50350 | -58.25229 | 96 ft | 0 kts | 315° |
| 2026-05-06 20:27 | 6.50345 | -58.25224 | 96 ft | 4 kts | 312° |
| 2026-05-06 20:27 | 6.50331 | -58.25202 | 96 ft | 4 kts | 285° |
| 2026-05-06 20:27 | 6.50330 | -58.25177 | 95 ft | 4 kts | 241° |
| 2026-05-06 20:28 | 6.50336 | -58.25168 | 95 ft | 0 kts | 225° |
| 2026-05-06 20:31 | 6.50322 | -58.25182 | 96 ft | 7 kts | 224° |
| 2026-05-06 20:31 | 6.50271 | -58.25232 | 96 ft | 11 kts | 224° |
| 2026-05-06 20:31 | 6.50230 | -58.25265 | 97 ft | 5 kts | 199° |
| 2026-05-06 20:31 | 6.50202 | -58.25257 | 97 ft | 4 kts | 152° |
| 2026-05-06 20:32 | 6.50166 | -58.25259 | 99 ft | 8 kts | 204° |
| 2026-05-06 20:32 | 6.50110 | -58.25314 | 100 ft | 14 kts | 225° |
| 2026-05-06 20:32 | 6.50024 | -58.25400 | 100 ft | 21 kts | 224° |
| 2026-05-06 20:32 | 6.49921 | -58.25502 | 101 ft | 20 kts | 224° |
| 2026-05-06 20:33 | 6.49830 | -58.25594 | 100 ft | 19 kts | 225° |
| 2026-05-06 20:33 | 6.49716 | -58.25710 | 101 ft | 24 kts | 225° |
| 2026-05-06 20:33 | 6.49600 | -58.25825 | 104 ft | 22 kts | 225° |
| 2026-05-06 20:33 | 6.49498 | -58.25927 | 105 ft | 19 kts | 225° |
| 2026-05-06 20:34 | 6.49404 | -58.26021 | 107 ft | 18 kts | 225° |
| 2026-05-06 20:34 | 6.49323 | -58.26102 | 108 ft | 15 kts | 224° |
| 2026-05-06 20:34 | 6.49255 | -58.26124 | 109 ft | 5 kts | 161° |
| 2026-05-06 20:34 | 6.49230 | -58.26109 | 109 ft | 3 kts | 144° |
| 2026-05-06 20:35 | 6.49212 | -58.26081 | 110 ft | 11 kts | 105° |
| 2026-05-06 20:35 | 6.49252 | -58.26012 | 109 ft | 0 kts | 43° |
| 2026-05-06 20:35 | 6.49253 | -58.26011 | 109 ft | 2 kts | 43° |
| 2026-05-06 20:35 | 6.49375 | -58.25890 | 107 ft | 59 kts | 44° |
| 2026-05-06 20:36 | 6.49822 | -58.25446 | 103 ft | 118 kts | 45° |
| 2026-05-06 20:36 | 6.50525 | -58.24752 | 103 ft | 162 kts | 44° |
| 2026-05-06 20:36 | 6.51299 | -58.23920 | 696 ft | 161 kts | 50° |
| 2026-05-06 20:36 | 6.52043 | -58.23073 | 1339 ft | 164 kts | 46° |
| 2026-05-06 20:37 | 6.52896 | -58.22231 | 1691 ft | 182 kts | 43° |
| 2026-05-06 20:37 | 6.54099 | -58.21663 | 1926 ft | 209 kts | 6° |
| 2026-05-06 20:37 | 6.55570 | -58.22080 | 2258 ft | 240 kts | 325° |
| 2026-05-06 20:37 | 6.56582 | -58.23519 | 2747 ft | 270 kts | 288° |
| 2026-05-06 20:38 | 6.56792 | -58.25431 | 3530 ft | 280 kts | 269° |
| 2026-05-06 20:38 | 6.56621 | -58.27408 | 4372 ft | 286 kts | 262° |
| 2026-05-06 20:38 | 6.56334 | -58.29402 | 5223 ft | 290 kts | 262° |
| 2026-05-06 20:38 | 6.56055 | -58.31428 | 5976 ft | 295 kts | 263° |
| 2026-05-06 20:39 | 6.55821 | -58.33487 | 6723 ft | 298 kts | 264° |
| 2026-05-06 20:39 | 6.55634 | -58.35587 | 7436 ft | 302 kts | 265° |
| 2026-05-06 20:39 | 6.55485 | -58.37708 | 8177 ft | 305 kts | 266° |
| 2026-05-06 20:39 | 6.55361 | -58.39850 | 8900 ft | 309 kts | 266° |
| 2026-05-06 20:40 | 6.55247 | -58.42020 | 9627 ft | 312 kts | 267° |
| 2026-05-06 20:40 | 6.55135 | -58.44223 | 10136 ft | 324 kts | 267° |
| 2026-05-06 20:40 | 6.55016 | -58.46567 | 10298 ft | 347 kts | 267° |
| 2026-05-06 20:40 | 6.54888 | -58.49044 | 10691 ft | 359 kts | 267° |
| 2026-05-06 20:41 | 6.54757 | -58.51570 | 11319 ft | 362 kts | 267° |
| 2026-05-06 20:41 | 6.54624 | -58.54104 | 11964 ft | 365 kts | 267° |
| 2026-05-06 20:41 | 6.54485 | -58.56660 | 12608 ft | 367 kts | 266° |
| 2026-05-06 20:41 | 6.54340 | -58.59236 | 13216 ft | 371 kts | 266° |
| 2026-05-06 20:42 | 6.54195 | -58.61804 | 13796 ft | 374 kts | 266° |
| 2026-05-06 20:42 | 6.54050 | -58.64428 | 14325 ft | 377 kts | 266° |
| 2026-05-06 20:42 | 6.53908 | -58.67065 | 14860 ft | 379 kts | 267° |
| 2026-05-06 20:42 | 6.53764 | -58.69724 | 15405 ft | 382 kts | 267° |
| 2026-05-06 20:43 | 6.53617 | -58.72398 | 15921 ft | 385 kts | 267° |
| 2026-05-06 20:43 | 6.53471 | -58.75094 | 16412 ft | 389 kts | 268° |
| 2026-05-06 20:43 | 6.53577 | -58.77826 | 16901 ft | 391 kts | 275° |
| 2026-05-06 20:43 | 6.53794 | -58.80560 | 17410 ft | 394 kts | 275° |
| 2026-05-06 20:44 | 6.54013 | -58.83309 | 17962 ft | 395 kts | 275° |
| 2026-05-06 20:44 | 6.54230 | -58.86065 | 18407 ft | 398 kts | 275° |
| 2026-05-06 20:44 | 6.54447 | -58.88851 | 18822 ft | 400 kts | 275° |
| 2026-05-06 20:44 | 6.54665 | -58.91658 | 19209 ft | 404 kts | 275° |
| 2026-05-06 20:45 | 6.54885 | -58.94478 | 19647 ft | 405 kts | 274° |
| 2026-05-06 20:45 | 6.55104 | -58.97304 | 20073 ft | 407 kts | 274° |
| 2026-05-06 20:45 | 6.55325 | -59.00145 | 20515 ft | 408 kts | 274° |
| 2026-05-06 20:45 | 6.55549 | -59.02998 | 20902 ft | 411 kts | 274° |
| 2026-05-06 20:46 | 6.55777 | -59.05868 | 21298 ft | 413 kts | 274° |
| 2026-05-06 20:46 | 6.56004 | -59.08754 | 21673 ft | 415 kts | 274° |
| 2026-05-06 20:46 | 6.56231 | -59.11656 | 22087 ft | 417 kts | 274° |
| 2026-05-06 20:46 | 6.56458 | -59.14568 | 22487 ft | 419 kts | 274° |
| 2026-05-06 20:47 | 6.56686 | -59.17493 | 22861 ft | 421 kts | 273° |
| 2026-05-06 20:47 | 6.56914 | -59.20435 | 23218 ft | 423 kts | 274° |
| 2026-05-06 20:47 | 6.57144 | -59.23393 | 23555 ft | 426 kts | 273° |
| 2026-05-06 20:47 | 6.57374 | -59.26372 | 23851 ft | 427 kts | 273° |
| 2026-05-06 20:48 | 6.57607 | -59.29358 | 24154 ft | 429 kts | 274° |
| 2026-05-06 20:48 | 6.57840 | -59.32352 | 24479 ft | 430 kts | 274° |
| 2026-05-06 20:48 | 6.58074 | -59.35347 | 24810 ft | 431 kts | 273° |
| 2026-05-06 20:48 | 6.58308 | -59.38356 | 25114 ft | 432 kts | 272° |
| 2026-05-06 20:49 | 6.58539 | -59.41378 | 25407 ft | 434 kts | 273° |
| 2026-05-06 20:49 | 6.58771 | -59.44404 | 25696 ft | 435 kts | 273° |
| 2026-05-06 20:49 | 6.59007 | -59.47452 | 25989 ft | 437 kts | 273° |
| 2026-05-06 20:49 | 6.59244 | -59.50506 | 26281 ft | 439 kts | 273° |
| 2026-05-06 20:50 | 6.59484 | -59.53583 | 26557 ft | 441 kts | 272° |
| 2026-05-06 20:50 | 6.59724 | -59.56661 | 26834 ft | 443 kts | 273° |
| 2026-05-06 20:50 | 6.59966 | -59.59757 | 27106 ft | 444 kts | 273° |
| 2026-05-06 20:50 | 6.60210 | -59.62861 | 27393 ft | 446 kts | 273° |
| 2026-05-06 20:51 | 6.60457 | -59.65974 | 27667 ft | 447 kts | 273° |
| 2026-05-06 20:51 | 6.60700 | -59.69063 | 27930 ft | 449 kts | 272° |
| 2026-05-06 20:51 | 6.60946 | -59.72197 | 28196 ft | 451 kts | 273° |
| 2026-05-06 20:51 | 6.61193 | -59.75346 | 28462 ft | 453 kts | 273° |
| 2026-05-06 20:52 | 6.61442 | -59.78507 | 28729 ft | 454 kts | 273° |
| 2026-05-06 20:52 | 6.61690 | -59.81688 | 28986 ft | 456 kts | 273° |
| 2026-05-06 20:52 | 6.61934 | -59.84872 | 29238 ft | 458 kts | 272° |
| 2026-05-06 20:52 | 6.62181 | -59.88071 | 29477 ft | 460 kts | 272° |
| 2026-05-06 20:53 | 6.62430 | -59.91282 | 29722 ft | 461 kts | 273° |
| 2026-05-06 20:53 | 6.62597 | -59.93453 | 29885 ft | 462 kts | 273° |
| 2026-05-06 20:53 | 6.62846 | -59.96632 | 30101 ft | 463 kts | 273° |
| 2026-05-06 20:53 | 6.63100 | -59.99869 | 30307 ft | 464 kts | 273° |
| 2026-05-06 20:54 | 6.63355 | -60.03106 | 30528 ft | 465 kts | 273° |
| 2026-05-06 20:54 | 6.63607 | -60.06353 | 30739 ft | 466 kts | 273° |
| 2026-05-06 20:54 | 6.63858 | -60.09599 | 30952 ft | 466 kts | 273° |
| 2026-05-06 20:54 | 6.64109 | -60.12854 | 31168 ft | 467 kts | 273° |
| 2026-05-06 20:55 | 6.64359 | -60.16103 | 31456 ft | 465 kts | 273° |
| 2026-05-06 20:55 | 6.64610 | -60.19343 | 31792 ft | 463 kts | 273° |
| 2026-05-06 20:55 | 6.64860 | -60.22560 | 32124 ft | 460 kts | 273° |
| 2026-05-06 20:55 | 6.65107 | -60.25762 | 32445 ft | 458 kts | 273° |
| 2026-05-06 20:56 | 6.65353 | -60.28996 | 32770 ft | 456 kts | 273° |
| 2026-05-06 20:56 | 6.65587 | -60.32132 | 33077 ft | 455 kts | 273° |
| 2026-05-06 20:56 | 6.65823 | -60.35300 | 33387 ft | 453 kts | 273° |
| 2026-05-06 20:56 | 6.66055 | -60.38454 | 33703 ft | 452 kts | 273° |
| 2026-05-06 20:57 | 6.66284 | -60.41596 | 34029 ft | 450 kts | 273° |
| 2026-05-06 20:57 | 6.66512 | -60.44732 | 34315 ft | 448 kts | 273° |
| 2026-05-06 20:57 | 6.66743 | -60.47853 | 34586 ft | 447 kts | 273° |
| 2026-05-06 20:57 | 6.66980 | -60.50961 | 34861 ft | 445 kts | 274° |
| 2026-05-06 20:58 | 6.67218 | -60.54063 | 35081 ft | 445 kts | 274° |
| 2026-05-06 20:58 | 6.67453 | -60.57160 | 35324 ft | 443 kts | 274° |
| 2026-05-06 20:58 | 6.67683 | -60.60247 | 35560 ft | 442 kts | 273° |
| 2026-05-06 20:58 | 6.67909 | -60.63325 | 35818 ft | 440 kts | 274° |
| 2026-05-06 20:59 | 6.68134 | -60.66401 | 35933 ft | 440 kts | 274° |
| 2026-05-06 20:59 | 6.68587 | -60.72526 | 35960 ft | 437 kts | 274° |
| 2026-05-06 21:00 | 6.69040 | -60.78617 | 35955 ft | 435 kts | 274° |
| 2026-05-06 21:00 | 6.69492 | -60.84694 | 35958 ft | 438 kts | 274° |
| 2026-05-06 21:01 | 6.69943 | -60.90788 | 35951 ft | 435 kts | 273° |
| 2026-05-06 21:01 | 6.70387 | -60.96846 | 35940 ft | 434 kts | 274° |
| 2026-05-06 21:02 | 6.70832 | -61.02909 | 35928 ft | 435 kts | 274° |
| 2026-05-06 21:02 | 6.71860 | -61.08906 | 35929 ft | 436 kts | 280° |
| 2026-05-06 21:03 | 6.73004 | -61.14897 | 35911 ft | 436 kts | 280° |
| 2026-05-06 21:03 | 6.74147 | -61.20902 | 35910 ft | 437 kts | 280° |
| 2026-05-06 21:04 | 6.75282 | -61.26917 | 35908 ft | 438 kts | 279° |
| 2026-05-06 21:04 | 6.76419 | -61.32934 | 35912 ft | 438 kts | 280° |
| 2026-05-06 21:05 | 6.77572 | -61.38954 | 35904 ft | 439 kts | 280° |
| 2026-05-06 21:05 | 6.78727 | -61.44988 | 35908 ft | 439 kts | 280° |
| 2026-05-06 21:06 | 6.79867 | -61.50987 | 35907 ft | 439 kts | 280° |
| 2026-05-06 21:06 | 6.81009 | -61.57033 | 35907 ft | 440 kts | 280° |
| 2026-05-06 21:07 | 6.82154 | -61.63077 | 35906 ft | 440 kts | 280° |
| 2026-05-06 21:07 | 6.83299 | -61.69129 | 35921 ft | 439 kts | 280° |
| 2026-05-06 21:08 | 6.84435 | -61.75178 | 35917 ft | 440 kts | 280° |
| 2026-05-06 21:08 | 6.85575 | -61.81225 | 35918 ft | 440 kts | 280° |
| 2026-05-06 21:09 | 6.86722 | -61.87276 | 35923 ft | 440 kts | 280° |
| 2026-05-06 21:09 | 6.87858 | -61.93282 | 35915 ft | 440 kts | 280° |
| 2026-05-06 21:10 | 6.89007 | -61.99370 | 35911 ft | 440 kts | 280° |
| 2026-05-06 21:10 | 6.90143 | -62.05384 | 35913 ft | 440 kts | 280° |
| 2026-05-06 21:11 | 6.91286 | -62.11437 | 35916 ft | 440 kts | 280° |
| 2026-05-06 21:11 | 6.92431 | -62.17501 | 35917 ft | 441 kts | 280° |
| 2026-05-06 21:12 | 6.93319 | -62.23596 | 35914 ft | 440 kts | 270° |
| 2026-05-06 21:12 | 6.92787 | -62.29733 | 35914 ft | 440 kts | 263° |
| 2026-05-06 21:13 | 6.92107 | -62.35859 | 35920 ft | 441 kts | 264° |
| 2026-05-06 21:13 | 6.91430 | -62.41991 | 35921 ft | 441 kts | 263° |
| 2026-05-06 21:14 | 6.90747 | -62.48128 | 35918 ft | 441 kts | 263° |
| 2026-05-06 21:14 | 6.90062 | -62.54267 | 35921 ft | 441 kts | 264° |
| 2026-05-06 21:15 | 6.89381 | -62.60395 | 35936 ft | 440 kts | 263° |
| 2026-05-06 21:15 | 6.88703 | -62.66520 | 35933 ft | 440 kts | 263° |
| 2026-05-06 21:16 | 6.88024 | -62.72632 | 35935 ft | 439 kts | 263° |
| 2026-05-06 21:16 | 6.87344 | -62.78703 | 35926 ft | 439 kts | 263° |
| 2026-05-06 21:17 | 6.86651 | -62.84811 | 35924 ft | 439 kts | 263° |
| 2026-05-06 21:17 | 6.85960 | -62.90925 | 35913 ft | 439 kts | 263° |
| 2026-05-06 21:18 | 6.85283 | -62.97026 | 35914 ft | 439 kts | 264° |
| 2026-05-06 21:18 | 6.84604 | -63.03131 | 35909 ft | 439 kts | 263° |
| 2026-05-06 21:19 | 6.83908 | -63.09239 | 35912 ft | 438 kts | 263° |
| 2026-05-06 21:19 | 6.83218 | -63.15348 | 35907 ft | 439 kts | 263° |
| 2026-05-06 21:20 | 6.82537 | -63.21445 | 35904 ft | 439 kts | 263° |
| 2026-05-06 21:20 | 6.81848 | -63.27551 | 35903 ft | 439 kts | 263° |
| 2026-05-06 21:21 | 6.81155 | -63.33657 | 35907 ft | 439 kts | 263° |
| 2026-05-06 21:21 | 6.80465 | -63.39763 | 35905 ft | 439 kts | 263° |
| 2026-05-06 21:22 | 6.79776 | -63.45826 | 35904 ft | 439 kts | 263° |
| 2026-05-06 21:22 | 6.79086 | -63.51950 | 35893 ft | 440 kts | 263° |
| 2026-05-06 21:23 | 6.78386 | -63.58081 | 35891 ft | 442 kts | 263° |
| 2026-05-06 21:23 | 6.77683 | -63.64225 | 35897 ft | 442 kts | 263° |
| 2026-05-06 21:24 | 6.76981 | -63.70374 | 35897 ft | 443 kts | 263° |
| 2026-05-06 21:24 | 6.76279 | -63.76539 | 35899 ft | 443 kts | 263° |
| 2026-05-06 21:25 | 6.75579 | -63.82706 | 35902 ft | 443 kts | 263° |
| 2026-05-06 21:25 | 6.74880 | -63.88871 | 35903 ft | 443 kts | 263° |
| 2026-05-06 21:26 | 6.74176 | -63.95041 | 35907 ft | 444 kts | 263° |
| 2026-05-06 21:26 | 6.73462 | -64.01206 | 35911 ft | 444 kts | 263° |
| 2026-05-06 21:27 | 6.72604 | -64.07347 | 35909 ft | 444 kts | 260° |
| 2026-05-06 21:27 | 6.71420 | -64.13438 | 35910 ft | 444 kts | 258° |
| 2026-05-06 21:28 | 6.70170 | -64.19524 | 35913 ft | 444 kts | 258° |
| 2026-05-06 21:28 | 6.68979 | -64.25617 | 35913 ft | 444 kts | 259° |
| 2026-05-06 21:29 | 6.67843 | -64.31682 | 35918 ft | 444 kts | 259° |
| 2026-05-06 21:29 | 6.66693 | -64.37794 | 35915 ft | 444 kts | 259° |
| 2026-05-06 21:30 | 6.65538 | -64.43895 | 35923 ft | 444 kts | 259° |
| 2026-05-06 21:30 | 6.64378 | -64.50002 | 35917 ft | 444 kts | 259° |
| 2026-05-06 21:31 | 6.63216 | -64.56110 | 35922 ft | 444 kts | 259° |
| 2026-05-06 21:31 | 6.62061 | -64.62216 | 35918 ft | 445 kts | 259° |
| 2026-05-06 21:32 | 6.60910 | -64.68327 | 35920 ft | 445 kts | 259° |
| 2026-05-06 21:32 | 6.59156 | -64.77500 | 35926 ft | 445 kts | 259° |
| 2026-05-06 21:33 | 6.57982 | -64.83623 | 35923 ft | 445 kts | 259° |
| 2026-05-06 21:33 | 6.56815 | -64.89738 | 35922 ft | 445 kts | 259° |
| 2026-05-06 21:34 | 6.55851 | -64.94814 | 35923 ft | 445 kts | 259° |
| 2026-05-06 21:34 | 6.54683 | -65.00936 | 35925 ft | 445 kts | 259° |
| 2026-05-06 21:35 | 6.53514 | -65.07048 | 35922 ft | 445 kts | 259° |
| 2026-05-06 21:35 | 6.52347 | -65.13170 | 35926 ft | 445 kts | 259° |
| 2026-05-06 21:36 | 6.51180 | -65.19287 | 35919 ft | 445 kts | 259° |
| 2026-05-06 21:36 | 6.50005 | -65.25399 | 35924 ft | 445 kts | 259° |
| 2026-05-06 21:37 | 6.48838 | -65.31482 | 35934 ft | 445 kts | 259° |
| 2026-05-06 21:37 | 6.47662 | -65.37632 | 35946 ft | 445 kts | 259° |
| 2026-05-06 21:38 | 6.46504 | -65.43702 | 35947 ft | 445 kts | 259° |
| 2026-05-06 21:38 | 6.45329 | -65.49803 | 35940 ft | 444 kts | 259° |
| 2026-05-06 21:39 | 6.44156 | -65.55908 | 35942 ft | 444 kts | 259° |
| 2026-05-06 21:39 | 6.42984 | -65.62009 | 35923 ft | 445 kts | 258° |
| 2026-05-06 21:40 | 6.41806 | -65.68119 | 35929 ft | 445 kts | 258° |
| 2026-05-06 21:40 | 6.40636 | -65.74230 | 35910 ft | 445 kts | 259° |
| 2026-05-06 21:41 | 6.39464 | -65.80346 | 35914 ft | 445 kts | 259° |
| 2026-05-06 21:41 | 6.38278 | -65.86464 | 35930 ft | 446 kts | 258° |
| 2026-05-06 21:42 | 6.37096 | -65.92580 | 35925 ft | 446 kts | 259° |
| 2026-05-06 21:42 | 6.35914 | -65.98703 | 35920 ft | 446 kts | 258° |
| 2026-05-06 21:43 | 6.34764 | -66.04834 | 35919 ft | 447 kts | 260° |
| 2026-05-06 21:43 | 6.33989 | -66.11032 | 35922 ft | 447 kts | 264° |
| 2026-05-06 21:44 | 6.33396 | -66.17256 | 35927 ft | 448 kts | 264° |
| 2026-05-06 21:44 | 6.32757 | -66.23444 | 35933 ft | 448 kts | 263° |
| 2026-05-06 21:45 | 6.32030 | -66.29699 | 35942 ft | 448 kts | 263° |
| 2026-05-06 21:45 | 6.31298 | -66.35920 | 35946 ft | 448 kts | 263° |
| 2026-05-06 21:46 | 6.30576 | -66.42130 | 35949 ft | 448 kts | 263° |
| 2026-05-06 21:46 | 6.29860 | -66.48345 | 35952 ft | 448 kts | 263° |
| 2026-05-06 21:47 | 6.29153 | -66.54525 | 35952 ft | 448 kts | 263° |
| 2026-05-06 21:47 | 6.28442 | -66.60750 | 35956 ft | 448 kts | 263° |
| 2026-05-06 21:48 | 6.27728 | -66.66979 | 35953 ft | 449 kts | 262° |
| 2026-05-06 21:48 | 6.27003 | -66.73212 | 35950 ft | 449 kts | 262° |
| 2026-05-06 21:49 | 6.26283 | -66.79461 | 35944 ft | 450 kts | 263° |
| 2026-05-06 21:49 | 6.25564 | -66.85711 | 35948 ft | 450 kts | 262° |
| 2026-05-06 21:50 | 6.24846 | -66.91963 | 35939 ft | 451 kts | 262° |
| 2026-05-06 21:50 | 6.24125 | -66.98203 | 35934 ft | 452 kts | 263° |
| 2026-05-06 21:51 | 6.23394 | -67.04487 | 35928 ft | 452 kts | 262° |
| 2026-05-06 21:51 | 6.22664 | -67.10767 | 35930 ft | 452 kts | 262° |
| 2026-05-06 21:52 | 6.21937 | -67.17053 | 35925 ft | 453 kts | 263° |
| 2026-05-06 21:52 | 6.21209 | -67.23347 | 35929 ft | 453 kts | 262° |
| 2026-05-06 21:53 | 6.20471 | -67.29642 | 35936 ft | 452 kts | 262° |
| 2026-05-06 21:53 | 6.19742 | -67.35871 | 35938 ft | 451 kts | 262° |
| 2026-05-06 21:54 | 6.19008 | -67.42172 | 35941 ft | 451 kts | 262° |
| 2026-05-06 21:54 | 6.18284 | -67.48387 | 35939 ft | 450 kts | 262° |
| 2026-05-06 21:55 | 6.17678 | -67.54649 | 35923 ft | 451 kts | 264° |
| 2026-05-06 21:55 | 6.17282 | -67.60938 | 35920 ft | 451 kts | 265° |
| 2026-05-06 21:56 | 6.16912 | -67.67230 | 35915 ft | 451 kts | 265° |
| 2026-05-06 21:56 | 6.16488 | -67.73530 | 35910 ft | 451 kts | 264° |
| 2026-05-06 21:57 | 6.16031 | -67.79816 | 35913 ft | 451 kts | 264° |
| 2026-05-06 21:57 | 6.15576 | -67.86105 | 35912 ft | 451 kts | 264° |
| 2026-05-06 21:58 | 6.15125 | -67.92395 | 35913 ft | 451 kts | 264° |
| 2026-05-06 21:58 | 6.14681 | -67.98691 | 35914 ft | 451 kts | 264° |
| 2026-05-06 21:59 | 6.14233 | -68.04983 | 35917 ft | 452 kts | 264° |
| 2026-05-06 21:59 | 6.13787 | -68.11281 | 35918 ft | 452 kts | 264° |
| 2026-05-06 22:00 | 6.13339 | -68.17577 | 35917 ft | 451 kts | 264° |
| 2026-05-06 22:00 | 6.12887 | -68.23867 | 35913 ft | 452 kts | 264° |
| 2026-05-06 22:01 | 6.12437 | -68.30170 | 35911 ft | 452 kts | 264° |
| 2026-05-06 22:01 | 6.11983 | -68.36474 | 35914 ft | 453 kts | 264° |
| 2026-05-06 22:02 | 6.11526 | -68.42790 | 35916 ft | 453 kts | 264° |
| 2026-05-06 22:02 | 6.11078 | -68.49069 | 35917 ft | 453 kts | 264° |
| 2026-05-06 22:03 | 6.10625 | -68.55382 | 35917 ft | 453 kts | 264° |
| 2026-05-06 22:03 | 6.10169 | -68.61695 | 35919 ft | 453 kts | 264° |
| 2026-05-06 22:04 | 6.09713 | -68.68010 | 35920 ft | 453 kts | 264° |
| 2026-05-06 22:04 | 6.09254 | -68.74326 | 35920 ft | 453 kts | 264° |